createdAt,value
2023-05-17T00:00:38.837Z,2.22
2023-05-17T00:03:06.106Z,2.38
2023-05-17T00:05:33.245Z,2.53
2023-05-17T00:08:00.466Z,2.15
2023-05-17T00:10:27.640Z,2.33
2023-05-17T00:12:54.774Z,2.10
2023-05-17T00:15:21.958Z,2.80
2023-05-17T00:17:49.141Z,2.33
2023-05-17T00:20:16.387Z,2.20
2023-05-17T00:22:46.359Z,2.22
2023-05-17T00:25:13.475Z,2.50
2023-05-17T00:27:44.143Z,2.72
2023-05-17T00:30:11.805Z,2.38
2023-05-17T00:32:39.025Z,3.05
2023-05-17T00:35:06.506Z,3.28
2023-05-17T00:37:33.688Z,2.60
2023-05-17T00:40:00.852Z,2.60
2023-05-17T00:42:28.061Z,2.70
2023-05-17T00:44:55.198Z,2.58
2023-05-17T00:47:22.384Z,2.58
2023-05-17T00:49:49.604Z,2.60
2023-05-17T00:52:16.889Z,2.10
2023-05-17T00:54:44.353Z,2.35
2023-05-17T00:57:11.726Z,2.70
2023-05-17T00:59:39.737Z,2.53
2023-05-17T01:02:07.269Z,2.78
2023-05-17T01:04:34.996Z,2.47
2023-05-17T01:07:02.680Z,2.22
2023-05-17T01:09:31.420Z,2.58
2023-05-17T01:12:33.798Z,2.45
2023-05-17T01:15:35.229Z,2.10
2023-05-17T01:18:24.773Z,2.10
2023-05-17T01:20:55.911Z,2.20
2023-05-17T01:23:56.044Z,2.35
2023-05-17T01:26:41.998Z,2.35
2023-05-17T01:29:10.247Z,2.22
2023-05-17T01:31:39.224Z,2.60
2023-05-17T01:34:10.651Z,3.03
2023-05-17T01:36:37.832Z,2.75
2023-05-17T01:39:05.125Z,2.92
2023-05-17T01:41:42.881Z,2.65
2023-05-17T01:44:47.254Z,2.92
2023-05-17T01:47:20.028Z,2.97
2023-05-17T01:49:55.934Z,3.42
2023-05-17T01:52:35.961Z,2.92
2023-05-17T01:55:34.284Z,3.10
2023-05-17T01:58:04.824Z,2.97
2023-05-17T02:00:32.107Z,3.30
2023-05-17T02:02:59.269Z,2.88
2023-05-17T02:05:26.649Z,2.90
2023-05-17T02:07:54.381Z,2.60
2023-05-17T02:10:21.525Z,2.70
2023-05-17T02:12:48.650Z,2.45
2023-05-17T02:15:17.006Z,3.08
2023-05-17T02:17:44.954Z,2.20
2023-05-17T02:20:12.371Z,2.40
2023-05-17T02:22:39.581Z,2.40
2023-05-17T02:25:08.335Z,2.00
2023-05-17T02:27:36.075Z,2.05
2023-05-17T02:30:04.800Z,3.13
2023-05-17T02:32:32.537Z,2.63
2023-05-17T02:35:00.325Z,3.33
2023-05-17T02:37:27.529Z,3.45
2023-05-17T02:39:54.677Z,2.75
2023-05-17T02:42:21.867Z,2.63
2023-05-17T02:44:53.252Z,2.58
2023-05-17T02:47:21.519Z,2.58
2023-05-17T02:49:48.628Z,2.38
2023-05-17T02:52:16.643Z,2.70
2023-05-17T02:54:46.621Z,2.35
2023-05-17T02:57:14.050Z,2.40
2023-05-17T02:59:41.299Z,2.70
2023-05-17T03:02:08.404Z,2.20
2023-05-17T03:04:35.795Z,2.30
2023-05-17T03:07:03.863Z,2.67
2023-05-17T03:09:32.997Z,2.35
2023-05-17T03:12:00.169Z,2.40
2023-05-17T03:14:27.246Z,2.17
2023-05-17T03:16:54.942Z,2.10
2023-05-17T03:19:22.208Z,1.83
2023-05-17T03:21:49.343Z,2.83
2023-05-17T03:24:16.584Z,3.67
2023-05-17T03:26:43.699Z,3.45
2023-05-17T03:29:12.342Z,2.67
2023-05-17T03:31:41.284Z,3.30
2023-05-17T03:34:08.503Z,2.83
2023-05-17T03:36:35.903Z,2.95
2023-05-17T03:39:03.298Z,2.83
2023-05-17T03:41:32.303Z,2.88
2023-05-17T03:43:59.356Z,2.83
2023-05-17T03:46:26.564Z,2.67
2023-05-17T03:48:53.691Z,2.80
2023-05-17T03:51:20.864Z,2.42
2023-05-17T03:53:48.172Z,2.65
2023-05-17T03:56:16.182Z,3.05
2023-05-17T03:58:43.327Z,2.50
2023-05-17T04:01:10.474Z,2.30
2023-05-17T04:03:37.826Z,2.38
2023-05-17T04:06:08.391Z,3.10
2023-05-17T04:08:36.336Z,2.20
2023-05-17T04:11:10.708Z,2.50
2023-05-17T04:13:38.089Z,2.25
2023-05-17T04:16:05.677Z,2.53
2023-05-17T04:18:39.351Z,2.30
2023-05-17T04:23:34.746Z,1.85
2023-05-17T04:26:02.044Z,4.20
2023-05-17T04:28:29.304Z,3.78
2023-05-17T04:30:57.002Z,3.80
2023-05-17T04:33:25.036Z,3.85
2023-05-17T04:35:55.968Z,3.65
2023-05-17T04:38:24.161Z,3.30
2023-05-17T04:40:51.503Z,3.33
2023-05-17T04:43:18.629Z,3.50
2023-05-17T04:45:45.784Z,2.90
2023-05-17T04:48:13.124Z,3.00
2023-05-17T04:50:40.481Z,3.08
2023-05-17T04:53:07.610Z,3.60
2023-05-17T04:55:34.854Z,4.22
2023-05-17T04:58:01.890Z,3.60
2023-05-17T05:00:29.035Z,3.70
2023-05-17T05:02:56.193Z,3.55
2023-05-17T05:05:25.415Z,3.97
2023-05-17T05:07:52.710Z,4.03
2023-05-17T05:10:19.950Z,3.95
2023-05-17T05:12:47.187Z,3.03
2023-05-17T05:15:14.483Z,2.70
2023-05-17T05:17:41.967Z,3.00
2023-05-17T05:20:10.385Z,2.70
2023-05-17T05:22:37.451Z,3.30
2023-05-17T05:25:05.349Z,3.70
2023-05-17T05:27:36.114Z,4.10
2023-05-17T05:30:03.760Z,3.88
2023-05-17T05:32:30.971Z,3.63
2023-05-17T05:34:58.073Z,3.72
2023-05-17T05:37:25.235Z,4.97
2023-05-17T05:39:52.380Z,4.30
2023-05-17T05:42:19.629Z,4.03
2023-05-17T05:44:46.688Z,3.97
2023-05-17T05:47:13.774Z,3.92
2023-05-17T05:49:40.961Z,3.65
2023-05-17T05:52:10.224Z,3.22
2023-05-17T05:54:37.284Z,3.55
2023-05-17T05:57:04.716Z,3.20
2023-05-17T05:59:32.397Z,4.03
2023-05-17T06:01:59.969Z,3.33
2023-05-17T06:04:40.742Z,3.50
2023-05-17T06:07:12.645Z,3.10
2023-05-17T06:09:39.838Z,3.85
2023-05-17T06:12:07.063Z,3.70
2023-05-17T06:14:34.318Z,3.22
2023-05-17T06:17:01.721Z,2.88
2023-05-17T06:19:28.947Z,3.05
2023-05-17T06:21:56.175Z,3.80
2023-05-17T06:24:23.341Z,3.15
2023-05-17T06:26:50.491Z,2.95
2023-05-17T06:29:17.542Z,3.08
2023-05-17T06:31:44.680Z,2.83
2023-05-17T06:34:11.987Z,3.13
2023-05-17T06:36:39.220Z,2.90
2023-05-17T06:39:06.445Z,3.10
2023-05-17T06:41:33.728Z,3.92
2023-05-17T06:44:00.927Z,3.28
2023-05-17T06:46:28.133Z,3.47
2023-05-17T06:48:55.377Z,3.90
2023-05-17T06:51:22.588Z,3.28
2023-05-17T06:53:50.777Z,3.40
2023-05-17T06:56:18.033Z,3.70
2023-05-17T06:58:45.253Z,3.28
2023-05-17T07:01:13.731Z,3.38
2023-05-17T07:03:41.146Z,3.30
2023-05-17T07:06:08.354Z,2.88
2023-05-17T07:08:35.430Z,3.67
2023-05-17T07:11:03.270Z,3.00
2023-05-17T07:13:32.267Z,3.33
2023-05-17T07:15:59.665Z,3.30
2023-05-17T07:18:31.315Z,3.58
2023-05-17T07:20:58.434Z,3.15
2023-05-17T07:23:25.703Z,3.30
2023-05-17T07:25:52.853Z,3.58
2023-05-17T07:28:20.109Z,3.45
2023-05-17T07:30:47.257Z,3.78
2023-05-17T07:33:14.470Z,3.70
2023-05-17T07:35:41.566Z,3.80
2023-05-17T07:38:09.224Z,3.28
2023-05-17T07:40:36.263Z,3.83
2023-05-17T07:43:03.332Z,4.18
2023-05-17T07:45:30.571Z,4.00
2023-05-17T07:47:57.855Z,3.95
2023-05-17T07:50:25.170Z,3.80
2023-05-17T07:53:03.109Z,4.07
2023-05-17T07:55:30.496Z,3.95
2023-05-17T07:57:57.698Z,4.32
2023-05-17T08:00:25.314Z,3.80
2023-05-17T08:02:52.480Z,3.92
2023-05-17T08:05:19.728Z,3.88
2023-05-17T08:07:47.386Z,3.83
2023-05-17T08:10:14.522Z,3.50
2023-05-17T08:12:41.658Z,3.55
2023-05-17T08:15:09.353Z,3.80
2023-05-17T08:17:36.865Z,4.03
2023-05-17T08:20:06.580Z,3.58
2023-05-17T08:22:33.958Z,3.50
2023-05-17T08:25:01.051Z,3.33
2023-05-17T08:27:31.275Z,3.75
2023-05-17T08:29:58.628Z,3.65
2023-05-17T08:32:26.434Z,3.80
2023-05-17T08:34:53.671Z,3.13
2023-05-17T08:37:20.898Z,3.05
2023-05-17T08:39:49.760Z,4.20
2023-05-17T08:42:22.064Z,4.35
2023-05-17T08:44:49.988Z,3.95
2023-05-17T08:47:38.122Z,3.00
2023-05-17T08:50:06.273Z,2.90
2023-05-17T08:52:34.165Z,2.88
2023-05-17T08:55:06.327Z,3.70
2023-05-17T08:57:36.969Z,3.70
2023-05-17T09:00:12.687Z,3.75
2023-05-17T09:02:43.220Z,3.10
2023-05-17T09:05:11.247Z,2.60
2023-05-17T09:07:38.531Z,3.22
2023-05-17T09:10:06.249Z,3.30
2023-05-17T09:12:37.034Z,3.35
2023-05-17T09:15:18.398Z,4.05
2023-05-17T09:17:53.443Z,3.45
2023-05-17T09:20:34.799Z,4.25
2023-05-17T09:23:06.852Z,4.72
2023-05-17T09:25:34.160Z,4.00
2023-05-17T09:28:09.601Z,3.95
2023-05-17T09:30:42.200Z,3.72
2023-05-17T09:33:12.458Z,4.10
2023-05-17T09:35:42.866Z,3.90
2023-05-17T09:38:14.194Z,4.10
2023-05-17T09:40:46.682Z,3.50
2023-05-17T09:43:15.010Z,3.50
2023-05-17T09:45:42.277Z,4.40
2023-05-17T09:48:19.910Z,3.50
2023-05-17T09:50:49.207Z,3.15
2023-05-17T09:53:30.552Z,3.40
2023-05-17T09:56:03.350Z,3.10
2023-05-17T09:58:33.272Z,3.78
2023-05-17T10:01:03.941Z,3.47
2023-05-17T10:03:33.883Z,2.30
2023-05-17T10:06:02.759Z,2.03
2023-05-17T10:08:30.861Z,2.47
2023-05-17T10:11:08.667Z,2.92
2023-05-17T10:14:05.096Z,2.50
2023-05-17T10:16:35.622Z,2.40
2023-05-17T10:19:04.082Z,2.22
2023-05-17T10:21:32.134Z,2.00
2023-05-17T10:24:01.882Z,2.28
2023-05-17T10:26:30.241Z,1.90
2023-05-17T10:29:02.457Z,2.30
2023-05-17T10:31:33.974Z,2.00
2023-05-17T10:34:02.977Z,1.70
2023-05-17T10:36:30.626Z,1.50
2023-05-17T10:38:59.914Z,2.00
2023-05-17T10:41:32.591Z,1.55
2023-05-17T10:44:02.416Z,1.52
2023-05-17T10:46:30.847Z,1.80
2023-05-17T10:49:00.622Z,1.58
2023-05-17T10:51:33.419Z,1.50
2023-05-17T10:54:03.533Z,1.95
2023-05-17T10:56:31.774Z,1.77
2023-05-17T10:59:24.924Z,1.50
2023-05-17T11:02:01.133Z,1.88
2023-05-17T11:04:53.027Z,1.60
2023-05-17T11:07:25.312Z,1.85
2023-05-17T11:09:54.524Z,1.90
2023-05-17T11:12:48.395Z,1.50
2023-05-17T11:17:43.657Z,2.15
2023-05-17T11:20:27.869Z,1.83
2023-05-17T11:23:06.408Z,1.40
2023-05-17T11:25:38.446Z,2.00
2023-05-17T11:28:22.726Z,1.73
2023-05-17T11:30:54.219Z,1.70
2023-05-17T11:33:46.624Z,2.00
2023-05-17T11:36:19.739Z,1.70
2023-05-17T11:38:55.182Z,1.90
2023-05-17T11:41:29.759Z,1.77
2023-05-17T11:43:56.990Z,1.40
2023-05-17T11:46:25.155Z,1.42
2023-05-17T11:48:53.466Z,1.90
2023-05-17T11:51:23.845Z,1.75
2023-05-17T11:53:55.857Z,1.60
2023-05-17T11:56:39.561Z,1.70
2023-05-17T11:59:11.006Z,1.80
2023-05-17T12:01:49.128Z,1.48
2023-05-17T12:04:27.505Z,1.70
2023-05-17T12:06:55.993Z,1.67
2023-05-17T12:09:23.641Z,1.73
2023-05-17T12:11:51.278Z,1.80
2023-05-17T12:14:18.955Z,1.55
2023-05-17T12:16:51.059Z,1.75
2023-05-17T12:19:20.706Z,2.20
2023-05-17T12:21:48.304Z,1.70
2023-05-17T12:24:16.230Z,2.03
2023-05-17T12:26:47.662Z,2.08
2023-05-17T12:29:16.232Z,1.95
2023-05-17T12:31:46.729Z,1.92
2023-05-17T12:34:14.626Z,2.10
2023-05-17T12:36:42.626Z,2.08
2023-05-17T12:39:14.374Z,2.10
2023-05-17T12:41:43.564Z,2.08
2023-05-17T12:44:15.800Z,1.70
2023-05-17T12:46:44.067Z,1.43
2023-05-17T12:49:12.570Z,2.13
2023-05-17T12:51:46.758Z,1.73
2023-05-17T12:54:19.523Z,1.80
2023-05-17T12:56:46.848Z,1.30
2023-05-17T12:59:21.160Z,2.47
2023-05-17T13:01:50.459Z,1.80
2023-05-17T13:04:19.403Z,1.65
2023-05-17T13:06:55.692Z,2.35
2023-05-17T13:09:24.537Z,1.95
2023-05-17T13:11:58.487Z,2.47
2023-05-17T13:14:45.365Z,2.10
2023-05-17T13:17:16.098Z,2.22
2023-05-17T13:19:43.466Z,2.30
2023-05-17T13:22:10.881Z,2.75
2023-05-17T13:24:40.166Z,2.78
2023-05-17T13:27:08.340Z,2.55
2023-05-17T13:29:42.128Z,2.78
2023-05-17T13:32:11.788Z,2.60
2023-05-17T13:34:39.381Z,2.13
2023-05-17T13:37:09.568Z,2.40
2023-05-17T13:39:38.588Z,2.40
2023-05-17T13:42:05.967Z,2.17
2023-05-17T13:44:33.286Z,2.40
2023-05-17T13:47:00.656Z,2.25
2023-05-17T13:49:28.874Z,2.42
2023-05-17T13:51:57.059Z,2.40
2023-05-17T13:54:24.192Z,2.97
2023-05-17T13:56:51.611Z,2.25
2023-05-17T13:59:18.826Z,2.50
2023-05-17T14:01:46.147Z,2.35
2023-05-17T14:04:13.680Z,2.40
2023-05-17T14:06:42.467Z,2.30
2023-05-17T14:09:10.635Z,2.05
2023-05-17T14:11:37.917Z,2.47
2023-05-17T14:14:05.030Z,2.10
2023-05-17T14:16:32.200Z,2.50
2023-05-17T14:19:01.929Z,2.30
2023-05-17T14:21:31.777Z,2.50
2023-05-17T14:24:00.745Z,2.28
2023-05-17T14:26:27.816Z,2.42
2023-05-17T14:28:54.896Z,2.33
2023-05-17T14:31:22.022Z,2.50
2023-05-17T14:33:49.140Z,2.08
2023-05-17T14:36:16.768Z,2.05
2023-05-17T14:38:43.966Z,2.50
2023-05-17T14:41:11.134Z,2.53
2023-05-17T14:43:38.237Z,2.58
2023-05-17T14:46:05.389Z,2.53
2023-05-17T14:48:34.925Z,2.25
2023-05-17T14:51:03.681Z,2.05
2023-05-17T14:53:31.069Z,2.28
2023-05-17T14:55:59.361Z,2.40
2023-05-17T14:58:26.858Z,2.60
2023-05-17T15:01:05.035Z,2.47
2023-05-17T15:03:33.717Z,2.45
2023-05-17T15:06:03.274Z,2.20
2023-05-17T15:08:32.491Z,2.30
2023-05-17T15:10:59.526Z,2.42
2023-05-17T15:13:26.918Z,2.50
2023-05-17T15:15:54.800Z,2.70
2023-05-17T15:18:22.728Z,2.80
2023-05-17T15:20:50.033Z,2.60
2023-05-17T15:23:17.359Z,2.38
2023-05-17T15:25:44.472Z,2.55
2023-05-17T15:28:11.932Z,2.30
2023-05-17T15:30:39.040Z,2.70
2023-05-17T15:33:06.811Z,2.40
2023-05-17T15:35:34.100Z,2.20
2023-05-17T15:38:06.281Z,2.30
2023-05-17T15:40:34.477Z,2.45
2023-05-17T15:43:01.637Z,2.63
2023-05-17T15:45:29.492Z,2.45
2023-05-17T15:47:57.507Z,2.10
2023-05-17T15:50:24.723Z,2.17
2023-05-17T15:52:51.922Z,2.50
2023-05-17T15:55:19.206Z,2.60
2023-05-17T15:57:46.923Z,2.50
2023-05-17T16:00:14.386Z,2.28
2023-05-17T16:02:41.764Z,2.15
2023-05-17T16:05:09.378Z,2.53
2023-05-17T16:07:36.659Z,2.17
2023-05-17T16:10:04.166Z,2.20
2023-05-17T16:12:31.392Z,2.55
2023-05-17T16:14:58.570Z,2.30
2023-05-17T16:17:25.702Z,2.35
2023-05-17T16:19:53.573Z,2.10
2023-05-17T16:22:20.844Z,2.65
2023-05-17T16:24:47.981Z,2.50
2023-05-17T16:27:15.160Z,2.15
2023-05-17T16:29:42.355Z,2.50
2023-05-17T16:32:09.483Z,2.50
2023-05-17T16:34:37.064Z,2.85
2023-05-17T16:37:05.026Z,2.65
2023-05-17T16:39:33.087Z,2.75
2023-05-17T16:42:00.364Z,2.55
2023-05-17T16:44:27.633Z,2.85
2023-05-17T16:46:54.963Z,2.72
2023-05-17T16:49:22.932Z,2.72
2023-05-17T16:51:52.261Z,2.75
2023-05-17T16:54:19.428Z,2.83
2023-05-17T16:56:46.765Z,2.50
2023-05-17T16:59:14.104Z,2.58
2023-05-17T17:01:41.181Z,2.90
2023-05-17T17:04:08.280Z,2.30
2023-05-17T17:06:35.865Z,2.80
2023-05-17T17:09:07.673Z,3.00
2023-05-17T17:11:35.186Z,2.90
2023-05-17T17:14:02.830Z,2.80
2023-05-17T17:16:31.494Z,3.05
2023-05-17T17:18:59.322Z,3.00
2023-05-17T17:21:26.755Z,3.22
2023-05-17T17:23:53.905Z,2.33
2023-05-17T17:26:21.291Z,2.67
2023-05-17T17:28:48.487Z,2.65
2023-05-17T17:31:16.612Z,2.60
2023-05-17T17:33:43.870Z,2.75
2023-05-17T17:36:12.033Z,2.92
2023-05-17T17:38:39.123Z,2.67
2023-05-17T17:41:06.607Z,2.97
2023-05-17T17:43:33.815Z,3.22
2023-05-17T17:46:01.213Z,3.03
2023-05-17T17:48:28.464Z,3.10
2023-05-17T17:50:56.366Z,3.17
2023-05-17T17:53:23.760Z,3.28
2023-05-17T17:55:50.952Z,3.55
2023-05-17T17:58:18.500Z,3.58
2023-05-17T18:00:45.671Z,3.03
2023-05-17T18:03:13.905Z,3.50
2023-05-17T18:05:42.363Z,3.42
2023-05-17T18:08:09.522Z,3.28
2023-05-17T18:10:36.622Z,3.70
2023-05-17T18:13:05.021Z,3.35
2023-05-17T18:15:32.154Z,2.95
2023-05-17T18:17:59.391Z,3.47
2023-05-17T18:20:26.669Z,3.25
2023-05-17T18:22:54.517Z,3.38
2023-05-17T18:25:22.339Z,2.80
2023-05-17T18:27:50.045Z,3.15
2023-05-17T18:30:18.716Z,2.92
2023-05-17T18:32:46.225Z,3.13
2023-05-17T18:35:13.686Z,2.92
2023-05-17T18:37:40.790Z,2.63
2023-05-17T18:40:08.547Z,2.83
2023-05-17T18:42:35.902Z,2.95
2023-05-17T18:45:03.104Z,2.58
2023-05-17T18:47:30.279Z,2.50
2023-05-17T18:49:57.949Z,2.83
2023-05-17T18:52:25.077Z,2.53
2023-05-17T18:54:52.221Z,2.60
2023-05-17T18:57:19.407Z,2.60
2023-05-17T18:59:46.552Z,2.53
2023-05-17T19:02:13.599Z,2.35
2023-05-17T19:04:41.115Z,2.50
2023-05-17T19:07:08.452Z,2.28
2023-05-17T19:09:35.809Z,2.70
2023-05-17T19:12:03.052Z,2.30
2023-05-17T19:14:30.173Z,2.50
2023-05-17T19:16:57.362Z,2.72
2023-05-17T19:19:26.197Z,2.35
2023-05-17T19:21:53.599Z,2.92
2023-05-17T19:24:20.777Z,2.53
2023-05-17T19:26:47.951Z,2.25
2023-05-17T19:29:15.267Z,2.35
2023-05-17T19:31:42.994Z,1.70
2023-05-17T19:34:10.262Z,2.10
2023-05-17T19:36:37.442Z,2.30
2023-05-17T19:39:04.635Z,2.38
2023-05-17T19:41:32.436Z,2.20
2023-05-17T19:44:30.305Z,2.40
2023-05-17T19:47:17.057Z,2.42
2023-05-17T19:49:44.299Z,2.30
2023-05-17T19:52:12.098Z,1.75
2023-05-17T19:54:39.242Z,2.60
2023-05-17T19:57:06.688Z,1.92
2023-05-17T19:59:34.010Z,2.20
2023-05-17T20:02:01.255Z,1.83
2023-05-17T20:04:28.501Z,2.65
2023-05-17T20:06:55.712Z,2.10
2023-05-17T20:09:25.677Z,2.15
2023-05-17T20:11:54.431Z,2.28
2023-05-17T20:14:21.779Z,2.47
2023-05-17T20:16:49.162Z,2.20
2023-05-17T20:19:16.515Z,2.45
2023-05-17T20:21:43.895Z,2.22
2023-05-17T20:24:11.379Z,2.25
2023-05-17T20:26:38.932Z,2.10
2023-05-17T20:29:07.656Z,2.47
2023-05-17T20:31:37.064Z,2.35
2023-05-17T20:34:05.657Z,2.30
2023-05-17T20:36:33.119Z,2.05
2023-05-17T20:39:00.344Z,2.30
2023-05-17T20:41:27.506Z,2.50
2023-05-17T20:43:54.931Z,1.90
2023-05-17T20:46:22.940Z,2.47
2023-05-17T20:48:50.836Z,2.25
2023-05-17T20:51:18.313Z,2.70
2023-05-17T20:53:46.957Z,2.00
2023-05-17T20:56:19.529Z,1.80
2023-05-17T20:58:48.309Z,1.67
2023-05-17T21:01:15.850Z,1.90
2023-05-17T21:03:44.148Z,1.90
2023-05-17T21:06:11.701Z,1.80
2023-05-17T21:08:39.205Z,1.90
2023-05-17T21:11:06.478Z,1.45
2023-05-17T21:13:33.598Z,1.52
2023-05-17T21:16:00.808Z,1.80
2023-05-17T21:18:27.981Z,1.77
2023-05-17T21:20:55.936Z,1.70
2023-05-17T21:23:23.017Z,1.80
2023-05-17T21:25:50.088Z,1.58
2023-05-17T21:28:17.475Z,3.30
2023-05-17T21:30:44.631Z,2.78
2023-05-17T21:33:11.770Z,2.67
2023-05-17T21:35:39.004Z,2.40
2023-05-17T21:38:06.413Z,3.33
2023-05-17T21:40:33.672Z,3.90
2023-05-17T21:43:01.377Z,3.45
2023-05-17T21:45:28.492Z,2.97
2023-05-17T21:47:55.838Z,2.80
2023-05-17T21:50:23.488Z,2.95
2023-05-17T21:52:51.014Z,2.70
2023-05-17T21:55:18.475Z,2.20
2023-05-17T21:57:45.645Z,1.98
2023-05-17T22:00:13.195Z,2.53
2023-05-17T22:02:41.360Z,1.58
2023-05-17T22:05:08.813Z,1.30
2023-05-17T22:07:36.425Z,1.50
2023-05-17T22:10:05.279Z,1.40
2023-05-17T22:12:35.276Z,1.52
2023-05-17T22:15:02.940Z,1.38
2023-05-17T22:17:39.281Z,1.30
2023-05-17T22:20:14.879Z,1.45
2023-05-17T22:22:42.448Z,1.50
2023-05-17T22:25:09.908Z,1.30
2023-05-17T22:27:36.982Z,1.33
2023-05-17T22:30:05.151Z,1.60
2023-05-17T22:32:32.405Z,1.27
2023-05-17T22:34:59.486Z,1.50
2023-05-17T22:37:26.709Z,1.40
2023-05-17T22:39:53.858Z,1.17
2023-05-17T22:42:21.117Z,1.33
2023-05-17T22:44:48.184Z,1.30
2023-05-17T22:47:15.530Z,1.70
2023-05-17T22:49:42.776Z,2.00
2023-05-17T22:52:11.301Z,2.30
2023-05-17T22:54:38.951Z,1.77
2023-05-17T22:57:06.750Z,1.85
2023-05-17T22:59:34.059Z,2.40
2023-05-17T23:02:04.348Z,2.42
2023-05-17T23:04:31.743Z,1.73
2023-05-17T23:07:04.819Z,1.73
2023-05-17T23:09:33.890Z,1.67
2023-05-17T23:12:05.844Z,1.67
2023-05-17T23:14:37.256Z,1.75
2023-05-17T23:17:04.945Z,2.00
2023-05-17T23:19:33.338Z,1.98
2023-05-17T23:22:04.491Z,2.00
2023-05-17T23:24:31.815Z,1.70
2023-05-17T23:26:59.154Z,1.73
2023-05-17T23:29:26.482Z,2.08
2023-05-17T23:31:54.047Z,1.50
2023-05-17T23:34:22.293Z,1.50
2023-05-17T23:36:49.452Z,1.40
2023-05-17T23:39:16.473Z,1.40
2023-05-17T23:41:43.568Z,1.38
2023-05-17T23:44:10.998Z,1.70
2023-05-17T23:46:38.255Z,1.67
2023-05-17T23:49:06.119Z,1.50
2023-05-17T23:51:35.082Z,1.40
2023-05-17T23:54:02.543Z,1.60
2023-05-17T23:56:32.967Z,2.65
2023-05-17T23:58:59.988Z,3.28
